In Rescue
 
Open Full Screen Window  High Contrast Mode
Wind Gusting 00 knots
10
July 01, 2022 10:16 AM EDT
Weather Information
Wind Direction
  250 °
Wind Speed
  10 kt (12 mph)
Wind Gust
  00 kt (0 mph)
Altimeter
30.07 in
Visibility
10 SM
Temperature
29° C
84° F
Dewpoint
22° C
72° F
Humidity
66%
1hr Rain Fall
00.00 in.
24hr Rain Fall
00.00 in.
Sky Condition
Scattered @ 9,500 ft
Scattered @ 4,200 ft
VFR

METAR KI19 011416Z AUTO 25010KT 10SM SCT042 SCT095 29/22 A3007 RMK AO2 T02880222 PWINO

FAA Disclaimer: The data displayed is for advisory purposes only and is not to be used for flight planning or operations.